sensor_id;sensor_type;location;lat;lon;timestamp;pressure;altitude;pressure_sealevel;temperature;humidity
75063;BME280;63981;51.052;13.754;2023-05-23T00:00:55;99972.34;;;17.72;61.08
75063;BME280;63981;51.052;13.754;2023-05-23T00:03:23;99970.69;;;17.61;61.16
75063;BME280;63981;51.052;13.754;2023-05-23T00:05:49;99964.75;;;17.67;61.59
75063;BME280;63981;51.052;13.754;2023-05-23T00:08:16;99954.91;;;17.68;60.90
75063;BME280;63981;51.052;13.754;2023-05-23T00:10:43;99955.78;;;17.68;61.51
75063;BME280;63981;51.052;13.754;2023-05-23T00:13:09;99962.41;;;17.82;61.16
75063;BME280;63981;51.052;13.754;2023-05-23T00:15:43;99968.97;;;17.88;61.42
75063;BME280;63981;51.052;13.754;2023-05-23T00:18:10;99935.28;;;17.69;61.15
75063;BME280;63981;51.052;13.754;2023-05-23T00:20:36;99966.91;;;17.82;61.87
75063;BME280;63981;51.052;13.754;2023-05-23T00:23:09;99968.00;;;17.71;62.97
75063;BME280;63981;51.052;13.754;2023-05-23T00:25:35;99927.16;;;17.35;63.94
75063;BME280;63981;51.052;13.754;2023-05-23T00:28:02;99964.97;;;17.56;63.03
75063;BME280;63981;51.052;13.754;2023-05-23T00:30:30;99977.63;;;17.54;62.88
75063;BME280;63981;51.052;13.754;2023-05-23T00:32:56;99988.28;;;17.54;64.46
75063;BME280;63981;51.052;13.754;2023-05-23T00:35:23;99997.78;;;17.57;63.90
75063;BME280;63981;51.052;13.754;2023-05-23T00:37:50;100011.13;;;17.39;66.05
75063;BME280;63981;51.052;13.754;2023-05-23T00:40:17;100012.81;;;17.13;67.37
75063;BME280;63981;51.052;13.754;2023-05-23T00:42:44;100013.16;;;16.72;70.96
75063;BME280;63981;51.052;13.754;2023-05-23T00:45:10;100007.38;;;16.30;70.41
75063;BME280;63981;51.052;13.754;2023-05-23T00:47:42;100005.94;;;16.36;71.78
75063;BME280;63981;51.052;13.754;2023-05-23T00:50:11;100001.41;;;16.56;72.33
75063;BME280;63981;51.052;13.754;2023-05-23T00:52:37;99987.78;;;16.12;74.06
75063;BME280;63981;51.052;13.754;2023-05-23T00:55:04;99983.50;;;15.91;77.67
75063;BME280;63981;51.052;13.754;2023-05-23T00:57:31;99987.53;;;16.05;78.40
75063;BME280;63981;51.052;13.754;2023-05-23T01:00:00;99972.63;;;16.41;78.75
75063;BME280;63981;51.052;13.754;2023-05-23T01:02:26;99987.41;;;15.87;81.25
75063;BME280;63981;51.052;13.754;2023-05-23T01:04:54;99984.84;;;15.47;84.17
75063;BME280;63981;51.052;13.754;2023-05-23T01:07:20;99969.50;;;15.80;83.26
75063;BME280;63981;51.052;13.754;2023-05-23T01:09:47;99952.97;;;15.57;83.61
75063;BME280;63981;51.052;13.754;2023-05-23T01:12:29;99968.22;;;15.55;85.18
75063;BME280;63981;51.052;13.754;2023-05-23T01:15:10;99949.06;;;15.42;85.34
75063;BME280;63981;51.052;13.754;2023-05-23T01:17:51;99974.09;;;15.58;85.19
75063;BME280;63981;51.052;13.754;2023-05-23T01:21:28;99970.88;;;15.45;87.55
75063;BME280;63981;51.052;13.754;2023-05-23T01:23:59;99989.72;;;15.23;87.77
75063;BME280;63981;51.052;13.754;2023-05-23T01:27:06;99903.13;;;14.62;89.82
75063;BME280;63981;51.052;13.754;2023-05-23T01:29:41;99981.00;;;15.01;90.55
75063;BME280;63981;51.052;13.754;2023-05-23T01:32:10;99956.13;;;14.93;90.35
75063;BME280;63981;51.052;13.754;2023-05-23T01:34:37;99967.19;;;15.08;90.82
75063;BME280;63981;51.052;13.754;2023-05-23T01:37:11;99997.81;;;15.21;91.33
75063;BME280;63981;51.052;13.754;2023-05-23T01:39:43;100003.69;;;15.15;91.68
75063;BME280;63981;51.052;13.754;2023-05-23T01:42:09;100003.81;;;15.14;91.38
75063;BME280;63981;51.052;13.754;2023-05-23T01:44:35;100008.25;;;15.03;91.39
75063;BME280;63981;51.052;13.754;2023-05-23T01:47:03;100009.19;;;14.93;91.74
75063;BME280;63981;51.052;13.754;2023-05-23T01:49:30;100008.34;;;14.92;92.34
75063;BME280;63981;51.052;13.754;2023-05-23T01:51:58;100008.63;;;14.89;91.83
75063;BME280;63981;51.052;13.754;2023-05-23T01:54:25;100009.47;;;14.90;93.18
75063;BME280;63981;51.052;13.754;2023-05-23T01:56:55;99996.72;;;14.84;93.06
75063;BME280;63981;51.052;13.754;2023-05-23T01:59:22;100003.31;;;14.89;93.49
75063;BME280;63981;51.052;13.754;2023-05-23T02:01:49;99960.19;;;14.57;93.62
75063;BME280;63981;51.052;13.754;2023-05-23T02:04:15;99999.09;;;14.77;93.14
75063;BME280;63981;51.052;13.754;2023-05-23T02:06:41;99994.63;;;14.78;93.40
75063;BME280;63981;51.052;13.754;2023-05-23T02:09:11;99989.97;;;14.70;94.22
75063;BME280;63981;51.052;13.754;2023-05-23T02:11:37;100001.31;;;14.82;93.69
75063;BME280;63981;51.052;13.754;2023-05-23T02:14:03;99993.56;;;14.90;94.10
75063;BME280;63981;51.052;13.754;2023-05-23T02:16:28;99984.75;;;14.89;92.90
75063;BME280;63981;51.052;13.754;2023-05-23T02:18:54;99975.09;;;14.88;93.09
75063;BME280;63981;51.052;13.754;2023-05-23T02:21:23;99982.38;;;14.86;93.68
75063;BME280;63981;51.052;13.754;2023-05-23T02:23:49;99972.41;;;14.79;94.21
75063;BME280;63981;51.052;13.754;2023-05-23T02:26:16;99963.47;;;14.80;93.70
75063;BME280;63981;51.052;13.754;2023-05-23T02:28:42;99962.78;;;14.78;94.88
75063;BME280;63981;51.052;13.754;2023-05-23T02:31:08;99948.13;;;14.73;94.10
75063;BME280;63981;51.052;13.754;2023-05-23T02:33:34;99947.66;;;14.68;94.84
75063;BME280;63981;51.052;13.754;2023-05-23T02:36:00;99947.78;;;14.67;94.79
75063;BME280;63981;51.052;13.754;2023-05-23T02:38:26;99945.59;;;14.72;94.55
75063;BME280;63981;51.052;13.754;2023-05-23T02:40:52;99947.28;;;14.73;94.13
75063;BME280;63981;51.052;13.754;2023-05-23T02:43:19;99935.81;;;14.72;93.88
75063;BME280;63981;51.052;13.754;2023-05-23T02:45:44;99930.78;;;14.79;94.01
75063;BME280;63981;51.052;13.754;2023-05-23T02:48:10;99918.66;;;14.77;95.13
75063;BME280;63981;51.052;13.754;2023-05-23T02:50:36;99929.97;;;14.79;94.76
75063;BME280;63981;51.052;13.754;2023-05-23T02:53:02;99930.28;;;15.04;94.12
75063;BME280;63981;51.052;13.754;2023-05-23T02:55:28;99907.34;;;14.74;93.83
75063;BME280;63981;51.052;13.754;2023-05-23T02:57:57;99929.44;;;14.85;94.09
75063;BME280;63981;51.052;13.754;2023-05-23T03:00:26;99919.91;;;14.82;94.33
75063;BME280;63981;51.052;13.754;2023-05-23T03:02:55;99915.44;;;14.73;95.14
75063;BME280;63981;51.052;13.754;2023-05-23T03:05:21;99907.91;;;14.78;95.31
75063;BME280;63981;51.052;13.754;2023-05-23T03:07:47;99903.00;;;14.73;94.37
75063;BME280;63981;51.052;13.754;2023-05-23T03:10:13;99895.59;;;14.77;95.20
75063;BME280;63981;51.052;13.754;2023-05-23T03:12:39;99883.31;;;14.76;95.44
75063;BME280;63981;51.052;13.754;2023-05-23T03:15:06;99893.81;;;14.97;94.90
75063;BME280;63981;51.052;13.754;2023-05-23T03:17:33;99897.72;;;14.93;94.56
75063;BME280;63981;51.052;13.754;2023-05-23T03:19:59;99899.13;;;14.87;94.15
75063;BME280;63981;51.052;13.754;2023-05-23T03:22:25;99898.16;;;14.88;94.62
75063;BME280;63981;51.052;13.754;2023-05-23T03:24:51;99892.38;;;14.83;94.49
75063;BME280;63981;51.052;13.754;2023-05-23T03:27:17;99893.13;;;14.85;94.73
75063;BME280;63981;51.052;13.754;2023-05-23T03:29:43;99733.59;;;13.90;94.50
75063;BME280;63981;51.052;13.754;2023-05-23T03:32:09;99883.03;;;14.79;94.62
75063;BME280;63981;51.052;13.754;2023-05-23T03:34:35;99893.50;;;14.81;94.92
75063;BME280;63981;51.052;13.754;2023-05-23T03:37:02;99879.53;;;14.79;95.20
75063;BME280;63981;51.052;13.754;2023-05-23T03:39:28;99889.19;;;14.80;94.33
75063;BME280;63981;51.052;13.754;2023-05-23T03:41:58;99857.03;;;14.63;94.48
75063;BME280;63981;51.052;13.754;2023-05-23T03:44:24;99880.69;;;14.86;94.67
75063;BME280;63981;51.052;13.754;2023-05-23T03:46:51;99868.50;;;14.73;93.71
75063;BME280;63981;51.052;13.754;2023-05-23T03:49:17;99826.56;;;14.48;94.29
75063;BME280;63981;51.052;13.754;2023-05-23T03:51:42;99886.00;;;14.86;93.96
75063;BME280;63981;51.052;13.754;2023-05-23T03:54:09;99816.31;;;14.43;94.87
75063;BME280;63981;51.052;13.754;2023-05-23T03:56:35;99893.13;;;14.85;94.75
75063;BME280;63981;51.052;13.754;2023-05-23T03:59:02;99892.16;;;14.86;94.65
75063;BME280;63981;51.052;13.754;2023-05-23T04:01:28;99899.25;;;14.86;94.06
75063;BME280;63981;51.052;13.754;2023-05-23T04:03:54;99875.78;;;14.71;94.03
75063;BME280;63981;51.052;13.754;2023-05-23T04:06:21;99897.72;;;14.93;94.10
75063;BME280;63981;51.052;13.754;2023-05-23T04:08:48;99912.97;;;15.20;93.99
75063;BME280;63981;51.052;13.754;2023-05-23T04:11:13;99916.06;;;15.34;94.18
75063;BME280;63981;51.052;13.754;2023-05-23T04:13:40;99922.91;;;15.47;93.31
75063;BME280;63981;51.052;13.754;2023-05-23T04:16:09;99904.63;;;15.24;93.40
75063;BME280;63981;51.052;13.754;2023-05-23T04:18:35;99919.72;;;15.24;93.28
75063;BME280;63981;51.052;13.754;2023-05-23T04:21:05;99921.25;;;15.26;93.75
75063;BME280;63981;51.052;13.754;2023-05-23T04:23:33;99905.44;;;15.34;93.51
75063;BME280;63981;51.052;13.754;2023-05-23T04:25:59;99931.31;;;15.71;93.19
75063;BME280;63981;51.052;13.754;2023-05-23T04:28:33;99936.53;;;15.63;93.23
75063;BME280;63981;51.052;13.754;2023-05-23T04:30:59;99932.00;;;15.83;93.20
75063;BME280;63981;51.052;13.754;2023-05-23T04:33:30;99933.13;;;15.90;93.31
75063;BME280;63981;51.052;13.754;2023-05-23T04:35:56;99939.69;;;16.05;93.17
75063;BME280;63981;51.052;13.754;2023-05-23T04:38:22;99939.78;;;16.13;93.50
75063;BME280;63981;51.052;13.754;2023-05-23T04:40:50;99902.44;;;16.05;93.11
75063;BME280;63981;51.052;13.754;2023-05-23T04:43:35;99938.06;;;16.32;92.84
75063;BME280;63981;51.052;13.754;2023-05-23T04:46:14;99925.06;;;16.29;93.01
75063;BME280;63981;51.052;13.754;2023-05-23T04:48:42;99943.16;;;16.52;92.47
75063;BME280;63981;51.052;13.754;2023-05-23T04:51:09;99942.03;;;16.55;92.96
75063;BME280;63981;51.052;13.754;2023-05-23T04:53:41;99951.34;;;16.41;92.81
75063;BME280;63981;51.052;13.754;2023-05-23T04:56:09;99945.03;;;16.42;92.98
75063;BME280;63981;51.052;13.754;2023-05-23T04:58:37;99952.06;;;16.34;92.24
75063;BME280;63981;51.052;13.754;2023-05-23T05:01:06;99959.31;;;16.41;92.96
75063;BME280;63981;51.052;13.754;2023-05-23T05:03:34;99909.31;;;15.98;92.90
75063;BME280;63981;51.052;13.754;2023-05-23T05:06:01;99946.56;;;16.45;92.95
75063;BME280;63981;51.052;13.754;2023-05-23T05:08:27;99951.41;;;16.59;92.28
75063;BME280;63981;51.052;13.754;2023-05-23T05:10:54;99957.78;;;16.76;92.18
75063;BME280;63981;51.052;13.754;2023-05-23T05:13:20;99928.34;;;16.77;92.30
75063;BME280;63981;51.052;13.754;2023-05-23T05:15:51;99941.94;;;17.02;91.39
75063;BME280;63981;51.052;13.754;2023-05-23T05:18:18;99952.28;;;17.05;91.07
75063;BME280;63981;51.052;13.754;2023-05-23T05:20:44;99920.47;;;16.86;91.17
75063;BME280;63981;51.052;13.754;2023-05-23T05:23:10;99945.88;;;17.25;90.80
75063;BME280;63981;51.052;13.754;2023-05-23T05:25:36;99955.63;;;17.70;90.32
75063;BME280;63981;51.052;13.754;2023-05-23T05:28:03;99956.19;;;17.74;89.53
75063;BME280;63981;51.052;13.754;2023-05-23T05:30:35;99957.31;;;17.89;89.33
75063;BME280;63981;51.052;13.754;2023-05-23T05:33:02;99952.72;;;17.81;88.37
75063;BME280;63981;51.052;13.754;2023-05-23T05:35:30;99868.69;;;17.33;87.98
75063;BME280;63981;51.052;13.754;2023-05-23T05:37:57;99957.13;;;17.90;88.61
75063;BME280;63981;51.052;13.754;2023-05-23T05:40:23;99959.56;;;18.02;87.85
75063;BME280;63981;51.052;13.754;2023-05-23T05:42:49;99945.22;;;18.03;87.33
75063;BME280;63981;51.052;13.754;2023-05-23T05:45:15;99953.34;;;18.19;87.18
75063;BME280;63981;51.052;13.754;2023-05-23T05:47:44;99956.25;;;18.08;86.96
75063;BME280;63981;51.052;13.754;2023-05-23T05:50:10;99955.00;;;17.94;87.03
75063;BME280;63981;51.052;13.754;2023-05-23T05:52:36;99903.38;;;17.59;87.88
75063;BME280;63981;51.052;13.754;2023-05-23T05:55:06;99959.28;;;17.69;87.28
75063;BME280;63981;51.052;13.754;2023-05-23T05:57:32;99939.09;;;17.66;87.09
75063;BME280;63981;51.052;13.754;2023-05-23T05:59:58;99960.31;;;18.38;87.29
75063;BME280;63981;51.052;13.754;2023-05-23T06:02:25;99961.81;;;18.66;86.21
75063;BME280;63981;51.052;13.754;2023-05-23T06:04:51;99967.34;;;19.15;85.38
75063;BME280;63981;51.052;13.754;2023-05-23T06:07:17;99964.34;;;19.26;83.59
75063;BME280;63981;51.052;13.754;2023-05-23T06:09:44;99961.94;;;19.57;81.83
75063;BME280;63981;51.052;13.754;2023-05-23T06:12:10;99958.78;;;19.70;80.25
75063;BME280;63981;51.052;13.754;2023-05-23T06:14:36;99974.09;;;19.43;80.75
75063;BME280;63981;51.052;13.754;2023-05-23T06:17:02;99932.09;;;19.20;79.88
75063;BME280;63981;51.052;13.754;2023-05-23T06:19:28;99966.56;;;18.80;80.54
75063;BME280;63981;51.052;13.754;2023-05-23T06:21:54;99952.06;;;18.91;81.93
75063;BME280;63981;51.052;13.754;2023-05-23T06:24:21;99975.75;;;19.44;79.75
75063;BME280;63981;51.052;13.754;2023-05-23T06:26:47;99982.69;;;19.13;80.02
75063;BME280;63981;51.052;13.754;2023-05-23T06:29:13;99928.97;;;18.40;78.93
75063;BME280;63981;51.052;13.754;2023-05-23T06:31:38;99989.59;;;18.30;79.26
75063;BME280;63981;51.052;13.754;2023-05-23T06:34:04;99976.16;;;18.39;80.38
75063;BME280;63981;51.052;13.754;2023-05-23T06:36:30;99988.84;;;18.45;78.82
75063;BME280;63981;51.052;13.754;2023-05-23T06:38:56;99995.94;;;18.54;79.83
75063;BME280;63981;51.052;13.754;2023-05-23T06:41:22;99992.53;;;18.44;78.85
75063;BME280;63981;51.052;13.754;2023-05-23T06:43:50;99989.50;;;18.13;79.49
75063;BME280;63981;51.052;13.754;2023-05-23T06:46:24;99944.13;;;17.69;81.18
75063;BME280;63981;51.052;13.754;2023-05-23T06:48:50;99989.50;;;18.13;81.59
75063;BME280;63981;51.052;13.754;2023-05-23T06:51:16;99992.16;;;18.39;81.84
75063;BME280;63981;51.052;13.754;2023-05-23T06:53:43;99998.03;;;18.43;80.27
75063;BME280;63981;51.052;13.754;2023-05-23T06:56:09;99995.59;;;18.57;79.90
75063;BME280;63981;51.052;13.754;2023-05-23T06:58:47;99995.66;;;18.92;79.66
75063;BME280;63981;51.052;13.754;2023-05-23T07:01:13;100000.72;;;19.11;78.90
75063;BME280;63981;51.052;13.754;2023-05-23T07:03:44;99994.81;;;19.41;77.89
75063;BME280;63981;51.052;13.754;2023-05-23T07:06:11;99981.44;;;19.50;75.89
75063;BME280;63981;51.052;13.754;2023-05-23T07:08:38;99992.53;;;20.03;74.26
75063;BME280;63981;51.052;13.754;2023-05-23T07:11:05;99985.16;;;19.65;72.63
75063;BME280;63981;51.052;13.754;2023-05-23T07:13:49;99996.88;;;19.72;71.53
75063;BME280;63981;51.052;13.754;2023-05-23T07:16:25;99994.72;;;20.00;72.88
75063;BME280;63981;51.052;13.754;2023-05-23T07:19:02;100001.22;;;19.89;72.23
75063;BME280;63981;51.052;13.754;2023-05-23T07:21:31;100001.88;;;20.16;72.45
75063;BME280;63981;51.052;13.754;2023-05-23T07:23:57;100005.22;;;20.34;71.34
75063;BME280;63981;51.052;13.754;2023-05-23T07:26:23;99998.38;;;20.31;69.97
75063;BME280;63981;51.052;13.754;2023-05-23T07:28:53;100007.72;;;20.36;69.93
75063;BME280;63981;51.052;13.754;2023-05-23T07:31:19;99966.91;;;20.33;69.67
75063;BME280;63981;51.052;13.754;2023-05-23T07:33:45;100002.84;;;20.72;69.07
75063;BME280;63981;51.052;13.754;2023-05-23T07:36:16;100005.63;;;20.78;68.31
75063;BME280;63981;51.052;13.754;2023-05-23T07:38:42;100003.16;;;20.69;65.89
75063;BME280;63981;51.052;13.754;2023-05-23T07:41:08;100001.28;;;20.85;67.69
75063;BME280;63981;51.052;13.754;2023-05-23T07:43:34;99930.41;;;20.88;67.35
75063;BME280;63981;51.052;13.754;2023-05-23T07:46:00;100012.72;;;20.63;66.11
75063;BME280;63981;51.052;13.754;2023-05-23T07:48:26;99995.03;;;20.46;66.51
75063;BME280;63981;51.052;13.754;2023-05-23T07:50:52;99981.06;;;20.67;66.34
75063;BME280;63981;51.052;13.754;2023-05-23T07:53:20;99996.22;;;21.30;65.76
75063;BME280;63981;51.052;13.754;2023-05-23T07:55:48;100002.44;;;22.22;63.99
75063;BME280;63981;51.052;13.754;2023-05-23T07:58:14;100001.25;;;22.24;62.50
75063;BME280;63981;51.052;13.754;2023-05-23T08:00:40;100001.50;;;22.67;61.34
75063;BME280;63981;51.052;13.754;2023-05-23T08:03:16;99969.66;;;21.12;62.91
75063;BME280;63981;51.052;13.754;2023-05-23T08:05:53;99967.94;;;23.07;60.13
75063;BME280;63981;51.052;13.754;2023-05-23T08:08:19;100004.78;;;22.02;60.79
75063;BME280;63981;51.052;13.754;2023-05-23T08:10:45;100003.41;;;22.29;60.94
75063;BME280;63981;51.052;13.754;2023-05-23T08:13:19;100005.72;;;21.40;61.86
75063;BME280;63981;51.052;13.754;2023-05-23T08:16:05;100004.19;;;21.69;62.23
75063;BME280;63981;51.052;13.754;2023-05-23T08:18:31;99990.31;;;21.65;61.51
75063;BME280;63981;51.052;13.754;2023-05-23T08:20:57;99896.53;;;21.87;59.89
75063;BME280;63981;51.052;13.754;2023-05-23T08:23:23;99986.75;;;22.48;59.47
75063;BME280;63981;51.052;13.754;2023-05-23T08:25:51;99968.94;;;23.42;55.26
75063;BME280;63981;51.052;13.754;2023-05-23T08:28:17;100009.06;;;23.22;56.65
75063;BME280;63981;51.052;13.754;2023-05-23T08:30:48;99982.66;;;23.83;55.75
75063;BME280;63981;51.052;13.754;2023-05-23T08:33:15;100010.34;;;24.48;54.17
75063;BME280;63981;51.052;13.754;2023-05-23T08:35:43;100007.44;;;25.25;52.60
75063;BME280;63981;51.052;13.754;2023-05-23T08:38:11;100012.88;;;24.97;51.48
75063;BME280;63981;51.052;13.754;2023-05-23T08:40:49;100017.38;;;25.25;50.87
75063;BME280;63981;51.052;13.754;2023-05-23T08:43:18;100020.53;;;25.28;50.44
75063;BME280;63981;51.052;13.754;2023-05-23T08:45:44;99995.06;;;25.51;48.46
75063;BME280;63981;51.052;13.754;2023-05-23T08:48:12;100019.66;;;24.87;50.46
75063;BME280;63981;51.052;13.754;2023-05-23T08:50:47;100018.13;;;23.94;53.69
75063;BME280;63981;51.052;13.754;2023-05-23T08:53:16;100019.25;;;24.49;52.87
75063;BME280;63981;51.052;13.754;2023-05-23T08:55:48;99995.72;;;23.50;54.78
75063;BME280;63981;51.052;13.754;2023-05-23T08:58:34;100031.25;;;23.10;54.62
75063;BME280;63981;51.052;13.754;2023-05-23T09:01:01;100038.91;;;23.28;55.14
75063;BME280;63981;51.052;13.754;2023-05-23T09:03:27;100029.66;;;23.15;55.62
75063;BME280;63981;51.052;13.754;2023-05-23T09:06:09;100036.72;;;23.52;55.37
75063;BME280;63981;51.052;13.754;2023-05-23T09:08:37;100035.50;;;22.75;56.46
75063;BME280;63981;51.052;13.754;2023-05-23T09:11:05;100007.13;;;23.31;55.70
75063;BME280;63981;51.052;13.754;2023-05-23T09:13:35;100005.56;;;23.43;54.71
75063;BME280;63981;51.052;13.754;2023-05-23T09:16:09;100049.22;;;22.80;55.58
75063;BME280;63981;51.052;13.754;2023-05-23T09:18:43;100051.75;;;22.96;56.66
75063;BME280;63981;51.052;13.754;2023-05-23T09:21:13;100054.28;;;22.60;56.97
75063;BME280;63981;51.052;13.754;2023-05-23T09:23:49;100057.81;;;22.23;58.12
75063;BME280;63981;51.052;13.754;2023-05-23T09:26:15;100051.22;;;22.48;57.35
75063;BME280;63981;51.052;13.754;2023-05-23T09:28:42;100019.41;;;21.54;58.47
75063;BME280;63981;51.052;13.754;2023-05-23T09:31:08;100059.53;;;21.70;59.10
75063;BME280;63981;51.052;13.754;2023-05-23T09:33:47;100028.53;;;21.90;58.40
75063;BME280;63981;51.052;13.754;2023-05-23T09:36:17;100016.81;;;21.37;60.13
75063;BME280;63981;51.052;13.754;2023-05-23T09:38:45;100068.28;;;20.77;62.71
75063;BME280;63981;51.052;13.754;2023-05-23T09:41:12;100046.88;;;20.04;64.18
75063;BME280;63981;51.052;13.754;2023-05-23T09:43:38;100061.78;;;20.23;63.70
75063;BME280;63981;51.052;13.754;2023-05-23T09:46:11;100080.00;;;20.11;64.61
75063;BME280;63981;51.052;13.754;2023-05-23T09:48:37;100047.38;;;20.40;63.93
75063;BME280;63981;51.052;13.754;2023-05-23T09:51:05;100068.03;;;20.95;62.57
75063;BME280;63981;51.052;13.754;2023-05-23T09:53:32;100082.34;;;21.35;61.69
75063;BME280;63981;51.052;13.754;2023-05-23T09:55:58;100075.69;;;21.62;60.21
75063;BME280;63981;51.052;13.754;2023-05-23T09:58:26;100087.88;;;21.33;61.46
75063;BME280;63981;51.052;13.754;2023-05-23T10:00:58;100093.19;;;21.49;60.33
75063;BME280;63981;51.052;13.754;2023-05-23T10:03:50;100091.75;;;21.23;61.26
75063;BME280;63981;51.052;13.754;2023-05-23T10:06:38;100098.53;;;21.02;62.15
75063;BME280;63981;51.052;13.754;2023-05-23T10:09:11;100096.09;;;20.44;63.60
75063;BME280;63981;51.052;13.754;2023-05-23T10:12:05;100104.44;;;20.24;64.48
75063;BME280;63981;51.052;13.754;2023-05-23T10:14:40;100100.50;;;21.08;62.21
75063;BME280;63981;51.052;13.754;2023-05-23T10:17:21;100056.81;;;21.00;61.05
75063;BME280;63981;51.052;13.754;2023-05-23T10:20:00;100091.06;;;21.68;60.27
75063;BME280;63981;51.052;13.754;2023-05-23T10:22:36;100104.13;;;22.62;56.28
75063;BME280;63981;51.052;13.754;2023-05-23T10:25:04;100101.13;;;22.80;54.94
75063;BME280;63981;51.052;13.754;2023-05-23T10:27:31;100092.44;;;24.80;48.74
75063;BME280;63981;51.052;13.754;2023-05-23T10:30:00;100070.31;;;28.40;41.45
75063;BME280;63981;51.052;13.754;2023-05-23T10:32:27;100081.28;;;32.53;32.29
75063;BME280;63981;51.052;13.754;2023-05-23T10:37:30;100095.63;;;30.94;33.65
75063;BME280;63981;51.052;13.754;2023-05-23T10:40:09;100103.44;;;26.15;41.32
75063;BME280;63981;51.052;13.754;2023-05-23T10:42:59;100113.75;;;27.96;40.36
75063;BME280;63981;51.052;13.754;2023-05-23T10:45:27;100106.50;;;27.38;41.38
75063;BME280;63981;51.052;13.754;2023-05-23T10:47:53;100104.25;;;27.28;41.38
75063;BME280;63981;51.052;13.754;2023-05-23T10:50:33;100117.22;;;24.62;46.54
75063;BME280;63981;51.052;13.754;2023-05-23T10:53:01;100105.06;;;23.88;48.83
75063;BME280;63981;51.052;13.754;2023-05-23T10:55:31;100115.91;;;25.49;46.75
75063;BME280;63981;51.052;13.754;2023-05-23T11:00:50;100119.56;;;25.76;44.13
75063;BME280;63981;51.052;13.754;2023-05-23T11:03:17;100128.00;;;25.59;44.11
75063;BME280;63981;51.052;13.754;2023-05-23T11:05:51;100076.91;;;24.54;44.84
75063;BME280;63981;51.052;13.754;2023-05-23T11:08:19;100137.28;;;24.17;46.65
75063;BME280;63981;51.052;13.754;2023-05-23T11:11:01;100140.03;;;23.07;50.32
75063;BME280;63981;51.052;13.754;2023-05-23T11:13:56;100113.22;;;28.18;40.16
75063;BME280;63981;51.052;13.754;2023-05-23T11:16:38;100116.94;;;30.09;35.61
75063;BME280;63981;51.052;13.754;2023-05-23T11:21:49;100116.41;;;27.57;39.50
75063;BME280;63981;51.052;13.754;2023-05-23T11:24:16;100122.13;;;29.62;36.90
75063;BME280;63981;51.052;13.754;2023-05-23T11:26:57;100120.50;;;28.18;38.76
75063;BME280;63981;51.052;13.754;2023-05-23T11:29:28;100100.53;;;25.43;44.02
75063;BME280;63981;51.052;13.754;2023-05-23T11:31:58;100096.91;;;24.94;44.63
75063;BME280;63981;51.052;13.754;2023-05-23T11:34:25;100089.56;;;24.11;45.14
75063;BME280;63981;51.052;13.754;2023-05-23T11:36:54;100134.00;;;23.64;47.27
75063;BME280;63981;51.052;13.754;2023-05-23T11:39:21;100099.19;;;23.48;47.13
75063;BME280;63981;51.052;13.754;2023-05-23T11:42:00;100137.19;;;23.89;47.42
75063;BME280;63981;51.052;13.754;2023-05-23T11:44:26;100101.75;;;23.05;49.61
75063;BME280;63981;51.052;13.754;2023-05-23T11:47:02;100105.47;;;23.70;48.10
75063;BME280;63981;51.052;13.754;2023-05-23T11:49:29;100114.88;;;23.30;49.15
75063;BME280;63981;51.052;13.754;2023-05-23T11:51:57;100128.31;;;23.74;49.64
75063;BME280;63981;51.052;13.754;2023-05-23T11:54:27;100131.00;;;22.62;51.76
75063;BME280;63981;51.052;13.754;2023-05-23T11:56:54;100098.06;;;22.69;51.59
75063;BME280;63981;51.052;13.754;2023-05-23T11:59:21;100133.09;;;21.44;54.74
75063;BME280;63981;51.052;13.754;2023-05-23T12:01:47;100120.50;;;21.45;53.76
75063;BME280;63981;51.052;13.754;2023-05-23T12:04:13;100139.81;;;22.11;53.69
75063;BME280;63981;51.052;13.754;2023-05-23T12:06:39;100133.72;;;21.86;52.78
75063;BME280;63981;51.052;13.754;2023-05-23T12:09:11;100134.19;;;23.18;51.16
75063;BME280;63981;51.052;13.754;2023-05-23T12:11:38;100125.28;;;23.47;50.41
75063;BME280;63981;51.052;13.754;2023-05-23T12:14:05;100117.53;;;24.31;47.66
75063;BME280;63981;51.052;13.754;2023-05-23T12:16:32;100121.09;;;25.50;46.02
75063;BME280;63981;51.052;13.754;2023-05-23T12:18:59;100119.41;;;28.32;40.50
75063;BME280;63981;51.052;13.754;2023-05-23T12:21:26;100123.88;;;28.13;39.18
75063;BME280;63981;51.052;13.754;2023-05-23T12:23:52;100125.72;;;27.23;40.91
75063;BME280;63981;51.052;13.754;2023-05-23T12:26:17;100125.56;;;26.72;40.61
75063;BME280;63981;51.052;13.754;2023-05-23T12:28:44;100120.72;;;26.28;42.09
75063;BME280;63981;51.052;13.754;2023-05-23T12:31:18;100130.41;;;27.99;40.01
75063;BME280;63981;51.052;13.754;2023-05-23T12:33:46;100117.22;;;28.09;38.48
75063;BME280;63981;51.052;13.754;2023-05-23T12:36:13;100118.41;;;28.52;37.39
75063;BME280;63981;51.052;13.754;2023-05-23T12:38:41;100125.47;;;26.12;42.72
75063;BME280;63981;51.052;13.754;2023-05-23T12:41:17;100126.75;;;24.65;45.45
75063;BME280;63981;51.052;13.754;2023-05-23T12:43:55;100137.75;;;23.55;48.67
75063;BME280;63981;51.052;13.754;2023-05-23T12:46:23;100137.59;;;22.37;50.94
75063;BME280;63981;51.052;13.754;2023-05-23T12:48:50;100135.66;;;22.31;51.71
75063;BME280;63981;51.052;13.754;2023-05-23T12:51:16;100148.28;;;21.60;53.37
75063;BME280;63981;51.052;13.754;2023-05-23T12:53:42;100154.00;;;21.57;53.51
75063;BME280;63981;51.052;13.754;2023-05-23T12:56:08;100138.19;;;21.23;53.28
75063;BME280;63981;51.052;13.754;2023-05-23T12:58:34;100143.28;;;20.77;54.72
75063;BME280;63981;51.052;13.754;2023-05-23T13:01:00;100158.47;;;21.09;54.43
75063;BME280;63981;51.052;13.754;2023-05-23T13:03:27;100154.50;;;20.97;53.60